Time;durP1;ratioP1;P1;durP2;ratioP2;P2;SDS_P1;SDS_P2;PMS_P1;PMS_P2;Temp;Humidity;BMP_temperature;BMP_pressure;BME280_temperature;BME280_humidity;BME280_pressure;Samples;Min_cycle;Max_cycle;Signal;HPM_P1;HPM_P2
2021/03/29 00:00:38;;;;;;;7.85;3.45;;;;;;;9.92;53.55;101476.03;8598475;33;20458;-74
2021/03/29 00:05:40;;;;;;;7.82;4.15;;;;;;;9.86;53.98;101473.72;8595180;33;21201;-74
2021/03/29 00:10:46;;;;;;;4.32;2.83;;;;;;;9.62;54.27;101486.75;8594219;33;20144;-74
2021/03/29 00:15:52;;;;;;;5.53;2.60;;;;;;;9.78;54.40;101475.97;8625378;33;20410;-74
2021/03/29 00:20:58;;;;;;;6.82;3.88;;;;;;;9.90;54.36;101473.44;8652826;33;20463;-75
2021/03/29 00:26:00;;;;;;;9.00;4.23;;;;;;;9.72;54.42;101469.16;8628336;33;20432;-75
2021/03/29 00:31:05;;;;;;;6.57;3.90;;;;;;;9.58;55.07;101469.13;8662428;33;20151;-75
2021/03/29 00:36:10;;;;;;;15.82;4.68;;;;;;;9.71;54.43;101470.97;8661259;33;20178;-74
2021/03/29 00:41:14;;;;;;;9.38;4.43;;;;;;;9.72;54.58;101463.78;8659224;33;20178;-74
2021/03/29 00:46:20;;;;;;;9.02;3.33;;;;;;;9.55;55.18;101472.84;8655801;33;20410;-74
2021/03/29 00:51:27;;;;;;;9.85;3.58;;;;;;;9.55;55.26;101477.38;8629730;33;20130;-74
2021/03/29 00:56:38;;;;;;;7.03;4.18;;;;;;;9.54;55.36;101470.25;8605709;33;20492;-75
2021/03/29 01:01:45;;;;;;;10.32;4.32;;;;;;;9.49;55.80;101474.09;8655071;33;20955;-74
2021/03/29 01:06:50;;;;;;;12.57;4.28;;;;;;;9.61;55.09;101477.00;8661463;33;20400;-74
2021/03/29 01:11:56;;;;;;;9.18;4.40;;;;;;;9.25;56.39;101462.97;8660529;33;22544;-75
2021/03/29 01:17:08;;;;;;;13.15;4.53;;;;;;;9.35;56.14;101468.69;8660751;33;21564;-75
2021/03/29 01:22:13;;;;;;;7.85;3.20;;;;;;;9.35;56.10;101478.50;8668300;33;20566;-74
2021/03/29 01:27:22;;;;;;;8.93;3.88;;;;;;;9.36;56.00;101464.19;8660816;33;21072;-74
2021/03/29 01:32:26;;;;;;;10.75;4.03;;;;;;;9.32;56.24;101471.50;8660997;33;20537;-74
2021/03/29 01:37:29;;;;;;;8.27;4.28;;;;;;;9.13;56.41;101470.84;8662530;33;20840;-75
2021/03/29 01:42:33;;;;;;;9.13;4.22;;;;;;;9.17;56.18;101461.69;8629400;33;20146;-74
2021/03/29 01:47:37;;;;;;;10.27;4.07;;;;;;;9.04;56.15;101464.22;8678352;33;20412;-75
2021/03/29 01:52:40;;;;;;;10.60;4.32;;;;;;;9.17;55.72;101459.88;8670380;33;20485;-75
2021/03/29 01:57:43;;;;;;;6.43;3.83;;;;;;;9.09;55.59;101453.25;8665031;33;20228;-75
2021/03/29 02:02:46;;;;;;;9.27;4.22;;;;;;;9.13;55.43;101446.72;8675984;33;20146;-74
2021/03/29 02:07:49;;;;;;;8.70;4.25;;;;;;;9.10;55.57;101434.38;8676219;33;20426;-75
2021/03/29 02:12:54;;;;;;;7.18;4.82;;;;;;;9.02;55.39;101440.19;8680326;33;21024;-75
2021/03/29 02:17:59;;;;;;;11.30;4.07;;;;;;;8.76;55.93;101440.81;8630464;33;20257;-75
2021/03/29 02:23:05;;;;;;;5.63;3.60;;;;;;;8.97;55.23;101438.75;8682001;33;20193;-75
2021/03/29 02:28:40;;;;;;;10.40;4.75;;;;;;;9.01;54.94;101432.22;8678433;33;20143;-75
2021/03/29 02:33:43;;;;;;;10.88;4.70;;;;;;;9.01;54.92;101432.22;8677883;33;20189;-74
2021/03/29 02:38:46;;;;;;;8.68;4.20;;;;;;;8.81;55.01;101441.44;8678160;33;20245;-75
2021/03/29 02:43:50;;;;;;;5.72;3.08;;;;;;;9.06;54.14;101452.47;8676269;33;20452;-75
2021/03/29 02:48:54;;;;;;;7.78;4.05;;;;;;;8.73;54.94;101452.56;8676891;33;20224;-75
2021/03/29 02:54:00;;;;;;;8.40;3.80;;;;;;;8.94;54.82;101445.13;8676337;33;20443;-74
2021/03/29 02:59:09;;;;;;;11.40;5.57;;;;;;;8.67;54.81;101439.53;8682663;33;20138;-74
2021/03/29 03:04:14;;;;;;;14.48;5.03;;;;;;;8.81;54.69;101442.28;8683746;33;20420;-74
2021/03/29 03:09:17;;;;;;;7.57;3.05;;;;;;;8.45;55.42;101457.69;8681800;33;20416;-74
2021/03/29 03:14:20;;;;;;;10.20;3.90;;;;;;;8.66;55.02;101437.78;8676200;33;20444;-75
2021/03/29 03:19:22;;;;;;;6.20;3.70;;;;;;;8.68;54.67;101448.44;8677205;33;20388;-74
2021/03/29 03:24:33;;;;;;;12.30;5.03;;;;;;;8.72;54.67;101450.84;8652476;33;20142;-74
2021/03/29 03:29:39;;;;;;;7.35;3.42;;;;;;;8.79;54.21;101444.19;8677544;33;20245;-75
2021/03/29 03:34:43;;;;;;;8.02;3.15;;;;;;;8.86;54.24;101449.19;8679290;33;20217;-74
2021/03/29 03:39:48;;;;;;;7.80;2.92;;;;;;;8.59;54.37;101439.94;8682076;33;21542;-74
2021/03/29 03:44:51;;;;;;;8.18;4.28;;;;;;;8.69;54.33;101442.97;8683464;33;20189;-74
2021/03/29 03:49:54;;;;;;;10.18;4.95;;;;;;;8.60;54.84;101448.84;8684633;33;20202;-74
2021/03/29 03:54:57;;;;;;;10.45;4.97;;;;;;;8.66;54.16;101458.34;8679103;33;20577;-74
2021/03/29 04:00:00;;;;;;;8.52;3.97;;;;;;;8.73;54.31;101462.44;8679150;33;20968;-74
2021/03/29 04:05:04;;;;;;;12.95;4.25;;;;;;;8.69;54.21;101447.47;8679112;33;20272;-74
2021/03/29 04:10:14;;;;;;;10.77;4.47;;;;;;;8.65;54.18;101454.81;8681853;33;20544;-75
2021/03/29 04:15:17;;;;;;;13.43;4.90;;;;;;;8.51;54.69;101446.69;8651346;33;20445;-74
2021/03/29 04:20:19;;;;;;;10.18;4.70;;;;;;;8.57;54.15;101447.19;8606132;33;20559;-74
2021/03/29 04:25:21;;;;;;;11.18;4.47;;;;;;;8.56;54.43;101453.53;8611302;33;21248;-74
2021/03/29 04:30:26;;;;;;;6.13;3.22;;;;;;;8.58;54.15;101450.75;8618912;33;21475;-74
2021/03/29 04:35:28;;;;;;;9.88;5.03;;;;;;;8.70;53.99;101446.53;8614635;33;20401;-75
2021/03/29 04:40:31;;;;;;;10.15;4.28;;;;;;;8.34;54.81;101459.16;8608437;33;20194;-75
2021/03/29 04:45:34;;;;;;;8.63;3.25;;;;;;;8.61;53.70;101448.78;8602685;33;20416;-74
2021/03/29 04:50:36;;;;;;;8.85;4.40;;;;;;;8.76;53.99;101427.44;8603596;33;20451;-74
2021/03/29 04:55:39;;;;;;;9.70;4.50;;;;;;;8.86;53.64;101450.06;8601505;33;20451;-74
2021/03/29 05:00:42;;;;;;;5.85;2.97;;;;;;;8.91;53.25;101439.06;8601547;33;20653;-74
2021/03/29 05:05:44;;;;;;;6.68;4.10;;;;;;;8.93;53.09;101427.31;8600653;33;20360;-74
2021/03/29 05:10:46;;;;;;;6.80;3.10;;;;;;;8.67;53.81;101436.00;8601462;33;20147;-73
2021/03/29 05:15:49;;;;;;;4.15;2.90;;;;;;;8.66;54.23;101448.50;8635051;33;20161;-74
2021/03/29 05:20:52;;;;;;;2.88;2.65;;;;;;;8.85;53.46;101429.56;8663773;33;20181;-75
2021/03/29 05:25:54;;;;;;;10.95;4.10;;;;;;;8.73;53.79;101452.56;8661288;33;20556;-74
2021/03/29 05:30:57;;;;;;;9.30;4.45;;;;;;;9.03;52.95;101452.63;8674284;33;20134;-75
2021/03/29 05:35:59;;;;;;;7.80;4.25;;;;;;;8.96;53.19;101470.00;8677600;33;20150;-75
2021/03/29 05:41:01;;;;;;;6.28;3.58;;;;;;;8.76;54.01;101471.16;8671210;33;20194;-75
2021/03/29 05:46:05;;;;;;;6.47;3.97;;;;;;;8.95;53.64;101470.97;8670804;33;20235;-75
2021/03/29 05:51:07;;;;;;;6.28;3.50;;;;;;;8.98;52.93;101470.78;8667346;33;20464;-75
2021/03/29 05:56:12;;;;;;;5.45;3.03;;;;;;;8.67;54.23;101470.81;8661452;33;20265;-75
2021/03/29 06:01:15;;;;;;;8.52;4.65;;;;;;;8.88;53.89;101456.19;8663427;33;21073;-75
2021/03/29 06:06:20;;;;;;;9.90;4.13;;;;;;;9.12;53.22;101466.47;8659689;33;20991;-75
2021/03/29 06:11:26;;;;;;;10.93;3.85;;;;;;;9.24;53.29;101469.31;8660172;33;20457;-74
2021/03/29 06:16:29;;;;;;;8.32;3.85;;;;;;;9.16;53.19;101484.97;8657474;33;20518;-74
2021/03/29 06:21:31;;;;;;;6.40;4.35;;;;;;;9.23;53.20;101472.91;8642766;33;20434;-74
2021/03/29 06:26:34;;;;;;;7.25;4.10;;;;;;;9.24;53.21;101474.66;8607618;33;20478;-72
2021/03/29 06:31:37;;;;;;;11.10;3.95;;;;;;;9.38;52.79;101478.34;8598588;33;20132;-74
2021/03/29 06:36:41;;;;;;;6.03;3.13;;;;;;;9.43;53.08;101486.97;8598324;33;20147;-74
2021/03/29 06:41:52;;;;;;;7.57;3.05;;;;;;;9.24;52.83;101505.94;8646533;33;21252;-74
2021/03/29 06:47:07;;;;;;;8.48;4.07;;;;;;;9.82;52.10;101515.97;8626934;33;20162;-74
2021/03/29 06:52:24;;;;;;;6.38;3.45;;;;;;;9.96;52.16;101508.94;8599355;33;20458;-73
2021/03/29 06:57:31;;;;;;;6.15;3.17;;;;;;;9.79;52.12;101505.41;8604723;33;20398;-73
2021/03/29 07:02:39;;;;;;;7.10;3.88;;;;;;;9.85;52.06;101518.44;8596103;33;20128;-73
2021/03/29 07:07:42;;;;;;;7.80;3.40;;;;;;;10.30;52.15;101521.13;8601881;33;20193;-72
2021/03/29 07:12:46;;;;;;;9.60;4.07;;;;;;;10.64;50.86;101519.00;8592947;33;20190;-73
2021/03/29 07:17:52;;;;;;;4.10;2.25;;;;;;;10.76;50.67;101526.31;8648197;33;20458;-73
2021/03/29 07:22:55;;;;;;;9.90;2.90;;;;;;;10.99;50.38;101538.28;8628871;33;20421;-74
2021/03/29 07:28:00;;;;;;;8.00;3.88;;;;;;;11.40;49.88;101543.66;8654786;33;20421;-75
2021/03/29 07:33:04;;;;;;;8.63;3.80;;;;;;;11.66;49.57;101538.38;8651414;33;20457;-74
2021/03/29 07:38:06;;;;;;;14.15;2.60;;;;;;;11.85;48.93;101567.63;8649909;33;20406;-74
2021/03/29 07:43:13;;;;;;;10.88;3.28;;;;;;;11.56;50.35;101559.66;8645431;33;20426;-74
2021/03/29 07:48:36;;;;;;;7.60;3.58;;;;;;;12.25;49.05;101556.78;8640590;33;20570;-73
2021/03/29 07:53:47;;;;;;;3.30;2.15;;;;;;;12.01;49.61;101560.19;8635359;33;20361;-74
2021/03/29 07:58:50;;;;;;;6.80;2.35;;;;;;;11.62;50.79;101561.06;8648878;33;20519;-75
2021/03/29 08:03:57;;;;;;;3.50;2.15;;;;;;;11.95;50.80;101561.47;8596774;33;20484;-74
2021/03/29 08:08:59;;;;;;;6.35;2.65;;;;;;;12.23;49.26;101564.09;8625192;33;20563;-74
2021/03/29 08:14:01;;;;;;;7.90;2.80;;;;;;;12.53;48.21;101563.81;8636404;33;20171;-74
2021/03/29 08:19:15;;;;;;;10.15;3.25;;;;;;;13.24;48.78;101563.13;8631707;33;20206;-74
2021/03/29 08:24:25;;;;;;;6.10;3.00;;;;;;;12.81;49.56;101565.44;8644775;33;20465;-74
2021/03/29 08:29:31;;;;;;;9.95;4.15;;;;;;;13.09;48.26;101563.44;8650355;33;20478;-74
2021/03/29 08:34:37;;;;;;;6.78;3.70;;;;;;;13.33;48.02;101569.72;8653817;33;20440;-74
2021/03/29 08:39:41;;;;;;;4.50;2.50;;;;;;;12.88;47.70;101580.19;8648675;33;20170;-74
2021/03/29 08:44:46;;;;;;;7.47;2.80;;;;;;;13.26;49.20;101568.44;8650188;33;20157;-74
2021/03/29 08:49:57;;;;;;;5.78;2.67;;;;;;;13.41;47.84;101570.03;8645448;33;20440;-74
2021/03/29 08:54:59;;;;;;;7.13;3.43;;;;;;;13.63;46.54;101547.69;8643730;33;20417;-74
2021/03/29 09:00:11;;;;;;;5.85;3.40;;;;;;;14.02;46.31;101571.78;8642122;33;20246;-74
2021/03/29 09:05:16;;;;;;;9.50;3.15;;;;;;;13.74;45.20;101565.78;8643230;33;21843;-74
2021/03/29 09:10:22;;;;;;;4.55;3.15;;;;;;;14.62;45.01;101568.00;8641117;33;20245;-73
2021/03/29 09:15:28;;;;;;;5.25;3.13;;;;;;;13.94;44.91;101575.06;8620594;33;20993;-73
2021/03/29 09:20:33;;;;;;;8.90;3.25;;;;;;;13.92;44.94;101571.63;8640180;33;20414;-74
2021/03/29 09:25:39;;;;;;;7.55;3.03;;;;;;;14.86;43.89;101591.34;8606454;33;20407;-73
2021/03/29 09:30:42;;;;;;;6.35;3.30;;;;;;;14.93;43.45;101601.56;8643564;33;20426;-73
2021/03/29 09:35:45;;;;;;;4.30;2.75;;;;;;;14.50;44.91;101582.47;8649964;33;20418;-73
2021/03/29 09:40:48;;;;;;;8.43;3.85;;;;;;;14.90;44.33;101588.28;8660753;33;20482;-74
2021/03/29 09:45:50;;;;;;;4.38;2.60;;;;;;;15.70;42.00;101589.88;8661159;33;20438;-74
2021/03/29 09:50:53;;;;;;;3.97;2.28;;;;;;;15.11;41.31;101596.50;8659134;33;20414;-74
2021/03/29 09:56:13;;;;;;;6.40;3.25;;;;;;;15.14;41.78;101593.56;8661656;33;20548;-74
2021/03/29 10:01:20;;;;;;;8.98;3.47;;;;;;;15.86;42.36;101608.41;8665146;33;20412;-72
2021/03/29 10:06:28;;;;;;;10.18;3.20;;;;;;;15.89;41.26;101603.59;8670726;33;20407;-72
2021/03/29 10:11:43;;;;;;;5.10;2.85;;;;;;;15.86;40.44;101603.84;8676719;33;20447;-72
2021/03/29 10:16:47;;;;;;;5.85;3.20;;;;;;;16.29;40.38;101612.91;8675988;33;20451;-73
2021/03/29 10:22:11;;;;;;;4.85;2.53;;;;;;;16.17;39.07;101603.09;8680474;33;20647;-73
2021/03/29 10:27:13;;;;;;;3.78;2.50;;;;;;;16.10;39.29;101594.63;8681119;33;20933;-74
2021/03/29 10:32:18;;;;;;;5.47;2.97;;;;;;;16.98;36.86;101596.88;8685566;33;20344;-74
2021/03/29 10:37:24;;;;;;;8.50;2.55;;;;;;;16.70;37.21;101597.59;8673944;33;20450;-73
2021/03/29 10:42:31;;;;;;;9.82;2.17;;;;;;;17.03;35.52;101607.31;8669239;33;20239;-74
2021/03/29 10:47:34;;;;;;;3.03;1.67;;;;;;;17.27;34.60;101609.72;8655599;33;20422;-73
2021/03/29 10:52:37;;;;;;;5.63;2.05;;;;;;;16.88;34.91;101600.53;8681229;33;20409;-74
2021/03/29 10:57:40;;;;;;;6.53;1.73;;;;;;;17.69;33.72;101594.06;8675867;33;20470;-74
2021/03/29 11:02:42;;;;;;;8.00;2.55;;;;;;;18.16;33.53;101593.38;8631067;33;20401;-72
2021/03/29 11:07:45;;;;;;;3.78;2.20;;;;;;;17.75;34.21;101602.66;8670497;33;20415;-75
2021/03/29 11:12:47;;;;;;;5.00;2.33;;;;;;;17.13;34.47;101607.34;8675787;33;20398;-74
2021/03/29 11:17:49;;;;;;;4.57;2.22;;;;;;;17.37;34.06;101607.88;8657522;33;20189;-74
2021/03/29 11:22:52;;;;;;;9.45;2.08;;;;;;;17.38;34.23;101598.72;8678987;33;20802;-74
2021/03/29 11:27:55;;;;;;;7.10;3.90;;;;;;;17.70;34.79;101578.63;8678388;33;20220;-74
2021/03/29 11:32:57;;;;;;;1.92;1.50;;;;;;;17.54;34.25;101600.06;8678777;33;20401;-73
2021/03/29 11:38:00;;;;;;;4.85;2.28;;;;;;;18.25;34.35;101597.94;8678211;33;20155;-74
2021/03/29 11:43:02;;;;;;;6.18;2.85;;;;;;;18.71;32.25;101604.44;8684706;33;20162;-73
2021/03/29 11:48:06;;;;;;;3.47;2.47;;;;;;;18.67;33.78;101602.13;8688019;33;21035;-74
2021/03/29 11:53:09;;;;;;;2.08;1.48;;;;;;;18.19;33.98;101595.81;8682374;33;20185;-73
2021/03/29 11:58:12;;;;;;;8.77;2.67;;;;;;;18.56;33.63;101595.88;8681865;33;20424;-74
2021/03/29 12:03:18;;;;;;;2.33;1.75;;;;;;;18.90;32.95;101595.38;8688801;33;20917;-74
2021/03/29 12:08:28;;;;;;;4.65;2.42;;;;;;;19.29;33.14;101597.88;8689247;33;20213;-74
2021/03/29 12:13:32;;;;;;;4.95;2.40;;;;;;;19.63;33.14;101616.34;8689009;33;20334;-74
2021/03/29 12:18:39;;;;;;;5.20;1.70;;;;;;;19.86;32.08;101614.91;8688677;33;21590;-75
2021/03/29 12:23:45;;;;;;;8.77;2.60;;;;;;;19.58;32.85;101597.75;8688384;33;20435;-73
2021/03/29 12:28:48;;;;;;;3.33;1.70;;;;;;;19.32;31.71;101605.75;8692176;33;20404;-73
2021/03/29 12:33:52;;;;;;;3.38;2.13;;;;;;;19.60;32.28;101614.78;8691919;33;20280;-74
2021/03/29 12:39:00;;;;;;;5.32;2.08;;;;;;;20.60;30.89;101604.59;8688829;33;20174;-74
2021/03/29 12:44:04;;;;;;;5.43;2.58;;;;;;;19.53;32.17;101604.59;8683769;33;20866;-74
2021/03/29 12:49:11;;;;;;;6.85;3.10;;;;;;;19.87;31.80;101597.50;8641027;33;20561;-74
2021/03/29 12:54:19;;;;;;;7.38;3.13;;;;;;;19.77;31.10;101588.53;8628509;33;20414;-74
2021/03/29 12:59:26;;;;;;;3.95;1.83;;;;;;;19.74;29.82;101594.31;8671603;33;20437;-74
2021/03/29 13:04:31;;;;;;;5.22;2.28;;;;;;;20.24;30.77;101584.69;8654825;33;21439;-74
2021/03/29 13:09:42;;;;;;;6.15;2.47;;;;;;;20.63;30.16;101593.34;8683176;33;20640;-74
2021/03/29 13:15:05;;;;;;;7.10;2.67;;;;;;;20.81;29.47;101608.81;8662726;33;20424;-74
2021/03/29 13:20:10;;;;;;;5.15;2.78;;;;;;;21.51;29.62;101603.16;8665181;33;20138;-74
2021/03/29 13:25:14;;;;;;;6.82;3.92;;;;;;;20.88;29.89;101588.88;8660799;33;20422;-74
2021/03/29 13:30:20;;;;;;;9.13;2.83;;;;;;;20.88;29.07;101579.84;8680422;33;20170;-74
2021/03/29 13:35:24;;;;;;;3.58;2.60;;;;;;;21.63;28.78;101582.66;8679088;33;20323;-75
2021/03/29 13:40:27;;;;;;;6.88;3.30;;;;;;;21.57;28.13;101564.22;8684200;33;20423;-74
2021/03/29 13:45:30;;;;;;;6.97;3.40;;;;;;;21.61;28.60;101585.59;8679494;33;20209;-74
2021/03/29 13:50:33;;;;;;;4.00;2.75;;;;;;;22.49;28.57;101576.75;8679805;33;20182;-74
2021/03/29 13:55:36;;;;;;;7.13;2.92;;;;;;;21.91;27.49;101565.97;8664445;33;20162;-74
2021/03/29 14:00:38;;;;;;;3.53;3.13;;;;;;;22.77;27.30;101579.91;8630258;33;20285;-75
2021/03/29 14:05:41;;;;;;;3.33;1.80;;;;;;;22.64;26.11;101578.75;8542761;33;20183;-74
2021/03/29 14:10:46;;;;;;;5.07;2.50;;;;;;;22.27;25.66;101572.81;8557496;33;20430;-75
2021/03/29 14:15:49;;;;;;;5.78;3.00;;;;;;;22.98;26.23;101562.00;8593560;33;20931;-74
2021/03/29 14:20:52;;;;;;;6.20;2.85;;;;;;;22.94;25.63;101579.84;8679343;33;20185;-75
2021/03/29 14:25:55;;;;;;;4.63;3.30;;;;;;;21.92;25.76;101574.03;8672361;33;20649;-75
2021/03/29 14:30:57;;;;;;;5.47;2.95;;;;;;;20.80;27.49;101586.09;8676131;33;20151;-74
2021/03/29 14:36:05;;;;;;;5.30;2.55;;;;;;;21.67;27.76;101590.38;8684262;33;20228;-75
2021/03/29 14:41:26;;;;;;;8.45;3.05;;;;;;;21.67;27.83;101584.06;8678069;33;20133;-75
2021/03/29 14:46:28;;;;;;;5.85;2.72;;;;;;;20.63;28.13;101578.84;8683047;33;20439;-74
2021/03/29 14:51:31;;;;;;;6.30;2.95;;;;;;;21.12;25.97;101570.94;8680392;33;20234;-74
2021/03/29 14:56:34;;;;;;;5.80;3.25;;;;;;;21.77;26.13;101576.56;8683419;33;20423;-74
2021/03/29 15:01:37;;;;;;;4.20;2.75;;;;;;;20.94;26.38;101582.75;8675334;33;20190;-74
2021/03/29 15:06:49;;;;;;;4.13;2.63;;;;;;;20.65;26.93;101574.06;8664401;33;20419;-74
2021/03/29 15:11:52;;;;;;;3.88;2.25;;;;;;;20.41;26.68;101559.28;8663019;33;20436;-74
2021/03/29 15:16:56;;;;;;;3.47;2.20;;;;;;;20.36;27.44;101586.19;8637766;33;20919;-74
2021/03/29 15:21:58;;;;;;;8.05;3.50;;;;;;;20.28;27.49;101561.53;8661897;33;20147;-74
2021/03/29 15:27:02;;;;;;;2.38;2.10;;;;;;;20.64;27.58;101588.75;8635984;33;20181;-74
2021/03/29 15:32:06;;;;;;;4.50;3.30;;;;;;;19.86;28.71;101563.09;8666349;33;20529;-74
2021/03/29 15:37:08;;;;;;;7.15;3.40;;;;;;;20.93;28.23;101561.94;8673280;33;20647;-74
2021/03/29 15:42:12;;;;;;;7.53;3.15;;;;;;;20.93;27.58;101564.66;8680184;33;20526;-74
2021/03/29 15:47:18;;;;;;;5.00;2.88;;;;;;;20.81;27.09;101579.63;8675122;33;20213;-74
2021/03/29 15:52:21;;;;;;;2.78;2.30;;;;;;;20.33;26.57;101560.06;8674176;33;20165;-74
2021/03/29 15:57:33;;;;;;;4.68;3.60;;;;;;;20.16;28.44;101554.59;8667907;33;20150;-74
2021/03/29 16:02:42;;;;;;;6.47;3.10;;;;;;;19.91;27.79;101562.59;8676811;33;20184;-74
2021/03/29 16:07:45;;;;;;;6.07;3.30;;;;;;;19.80;27.58;101555.53;8674051;33;20903;-74
2021/03/29 16:12:48;;;;;;;6.22;2.80;;;;;;;20.09;28.55;101560.72;8648783;33;20147;-74
2021/03/29 16:17:50;;;;;;;6.43;2.67;;;;;;;20.43;26.63;101559.09;8668827;33;20245;-73
2021/03/29 16:22:53;;;;;;;4.32;2.72;;;;;;;20.48;27.93;101568.50;8654116;33;20941;-73
2021/03/29 16:27:56;;;;;;;6.03;3.28;;;;;;;19.93;27.58;101555.13;8633965;33;20423;-73
2021/03/29 16:32:59;;;;;;;5.57;2.75;;;;;;;19.54;27.93;101560.88;8627339;33;20294;-74
2021/03/29 16:38:01;;;;;;;3.63;3.03;;;;;;;19.65;28.10;101563.38;8623783;33;21855;-75
2021/03/29 16:43:06;;;;;;;4.28;2.80;;;;;;;19.52;27.54;101579.22;8623943;33;20186;-73
2021/03/29 16:48:09;;;;;;;5.93;3.08;;;;;;;19.20;28.72;101569.69;8614681;33;20524;-73
2021/03/29 16:53:12;;;;;;;6.72;2.97;;;;;;;18.77;29.81;101579.34;8633903;33;20433;-76
2021/03/29 16:58:15;;;;;;;3.50;2.80;;;;;;;19.01;29.01;101588.88;8667414;33;20142;-73
2021/03/29 17:03:17;;;;;;;3.47;2.78;;;;;;;19.07;29.28;101580.09;8658663;33;20158;-76
2021/03/29 17:08:20;;;;;;;5.23;3.17;;;;;;;18.96;29.47;101591.19;8659743;33;21022;-76
2021/03/29 17:13:23;;;;;;;7.18;3.05;;;;;;;18.74;29.76;101603.28;8655117;33;20473;-75
2021/03/29 17:18:25;;;;;;;5.95;3.50;;;;;;;18.26;30.49;101602.38;8629181;33;20162;-75
2021/03/29 17:23:28;;;;;;;7.07;3.35;;;;;;;18.49;30.17;101608.34;8652779;33;20460;-75
2021/03/29 17:28:32;;;;;;;6.18;3.35;;;;;;;18.10;31.12;101610.25;8652642;33;21149;-75
2021/03/29 17:33:35;;;;;;;6.85;3.30;;;;;;;17.97;30.52;101615.13;8652966;33;20216;-75
2021/03/29 17:38:57;;;;;;;6.50;3.42;;;;;;;17.48;31.45;101615.91;8651589;33;20457;-75
2021/03/29 17:44:00;;;;;;;5.05;3.33;;;;;;;17.59;31.51;101614.94;8649745;33;20458;-75
2021/03/29 17:49:02;;;;;;;5.53;3.92;;;;;;;17.35;31.76;101617.16;8622392;33;20285;-75
2021/03/29 17:54:05;;;;;;;9.48;4.30;;;;;;;17.31;32.03;101615.75;8629745;33;20233;-75
2021/03/29 17:59:08;;;;;;;6.43;3.90;;;;;;;17.27;32.20;101628.72;8630645;33;20187;-75
2021/03/29 18:04:11;;;;;;;6.75;3.30;;;;;;;17.07;32.01;101632.34;8622770;33;20503;-75
2021/03/29 18:09:13;;;;;;;8.05;3.97;;;;;;;17.06;31.87;101627.88;8641538;33;20431;-75
2021/03/29 18:14:16;;;;;;;6.40;3.38;;;;;;;17.03;31.85;101642.59;8630643;33;20140;-75
2021/03/29 18:19:19;;;;;;;7.32;3.97;;;;;;;16.94;32.30;101654.28;8635908;33;20182;-76
2021/03/29 18:24:21;;;;;;;8.18;3.85;;;;;;;16.82;32.13;101650.78;8649696;33;20419;-76
2021/03/29 18:29:24;;;;;;;8.05;3.38;;;;;;;16.67;32.27;101666.53;8633237;33;20525;-75
2021/03/29 18:34:26;;;;;;;5.72;3.72;;;;;;;16.63;32.14;101669.69;8632849;33;21205;-75
2021/03/29 18:39:30;;;;;;;5.95;3.72;;;;;;;16.56;32.16;101667.50;8634139;33;20707;-76
2021/03/29 18:44:34;;;;;;;7.22;4.15;;;;;;;16.52;32.25;101667.88;8645256;33;20320;-75
2021/03/29 18:49:36;;;;;;;8.15;3.92;;;;;;;16.55;31.95;101684.75;8636141;33;20407;-75
2021/03/29 18:54:38;;;;;;;6.53;4.18;;;;;;;16.47;32.11;101686.41;8626678;33;20504;-75
2021/03/29 18:59:41;;;;;;;8.60;3.85;;;;;;;16.28;31.70;101689.81;8629822;33;20524;-75
2021/03/29 19:04:43;;;;;;;9.85;4.30;;;;;;;16.35;32.07;101693.75;8630276;33;20421;-75
2021/03/29 19:09:46;;;;;;;5.82;4.55;;;;;;;16.33;31.99;101699.28;8620786;33;20900;-74
2021/03/29 19:14:49;;;;;;;6.93;5.05;;;;;;;16.25;31.98;101701.75;8638476;33;20431;-74
2021/03/29 19:19:51;;;;;;;7.30;4.18;;;;;;;16.15;32.34;101706.22;8650533;33;20938;-75
2021/03/29 19:24:53;;;;;;;6.57;3.85;;;;;;;16.04;32.08;101704.41;8640564;33;20197;-76
2021/03/29 19:29:56;;;;;;;8.05;4.75;;;;;;;15.96;32.01;101706.03;8650080;33;20227;-74
2021/03/29 19:34:59;;;;;;;8.95;4.40;;;;;;;15.88;31.88;101704.00;8652631;33;20618;-74
2021/03/29 19:40:03;;;;;;;11.98;4.97;;;;;;;15.73;32.17;101710.66;8657395;33;20486;-74
2021/03/29 19:45:09;;;;;;;8.45;4.70;;;;;;;15.60;32.48;101713.50;8631081;33;20672;-74
2021/03/29 19:50:11;;;;;;;8.18;4.30;;;;;;;15.39;33.73;101716.13;8615691;33;20480;-74
2021/03/29 19:55:14;;;;;;;9.82;4.75;;;;;;;15.17;33.80;101716.94;8612513;33;20151;-75
2021/03/29 20:00:20;;;;;;;7.07;4.50;;;;;;;15.06;34.14;101720.50;8628593;33;20142;-75
2021/03/29 20:05:26;;;;;;;7.75;4.72;;;;;;;15.06;33.12;101717.78;8647826;33;20190;-74
2021/03/29 20:10:28;;;;;;;7.32;4.25;;;;;;;15.24;32.74;101720.88;8634920;33;20441;-75
2021/03/29 20:15:31;;;;;;;7.10;4.95;;;;;;;15.40;32.35;101723.25;8642597;33;20174;-75
2021/03/29 20:20:35;;;;;;;7.05;4.40;;;;;;;15.36;32.65;101719.03;8646277;33;20281;-75
2021/03/29 20:25:38;;;;;;;8.68;4.45;;;;;;;15.20;32.85;101720.25;8628423;33;20513;-74
2021/03/29 20:30:41;;;;;;;10.32;4.90;;;;;;;15.20;32.22;101722.13;8603107;33;20179;-75
2021/03/29 20:35:43;;;;;;;11.10;4.28;;;;;;;15.08;32.64;101718.50;8597175;33;20151;-74
2021/03/29 20:40:46;;;;;;;7.15;5.05;;;;;;;15.08;32.48;101728.47;8596035;33;20456;-74
2021/03/29 20:45:49;;;;;;;6.90;4.57;;;;;;;15.05;32.56;101724.16;8595166;33;20918;-75
2021/03/29 20:50:51;;;;;;;10.18;5.18;;;;;;;15.01;33.04;101722.72;8612668;33;20590;-75
2021/03/29 20:55:53;;;;;;;10.68;4.88;;;;;;;14.96;33.12;101733.03;8654217;33;21141;-75
2021/03/29 21:00:56;;;;;;;10.23;5.38;;;;;;;14.85;33.14;101735.72;8654400;33;20436;-74
2021/03/29 21:05:59;;;;;;;9.48;5.28;;;;;;;14.86;33.53;101740.13;8653016;33;21109;-74
2021/03/29 21:11:01;;;;;;;10.73;5.95;;;;;;;14.73;33.54;101729.41;8654437;33;20428;-74
2021/03/29 21:16:05;;;;;;;12.18;6.30;;;;;;;14.64;33.84;101727.41;8631107;33;20434;-75
2021/03/29 21:21:09;;;;;;;9.10;5.20;;;;;;;14.65;33.68;101723.75;8594161;33;20124;-75
2021/03/29 21:26:11;;;;;;;8.98;5.53;;;;;;;14.49;33.31;101732.16;8598934;33;20409;-74
2021/03/29 21:31:14;;;;;;;9.18;5.30;;;;;;;14.51;33.53;101731.06;8591639;33;20190;-74
2021/03/29 21:36:17;;;;;;;11.40;5.57;;;;;;;14.43;33.36;101740.75;8594498;33;20146;-74
2021/03/29 21:41:20;;;;;;;10.00;5.50;;;;;;;14.29;33.60;101749.84;8593070;33;20454;-74
2021/03/29 21:46:23;;;;;;;10.48;5.28;;;;;;;14.15;34.13;101753.59;8563987;33;20415;-74
2021/03/29 21:51:27;;;;;;;8.25;5.45;;;;;;;14.23;33.77;101761.13;8562572;33;20186;-74
2021/03/29 21:56:40;;;;;;;7.63;5.32;;;;;;;14.24;33.59;101781.78;8534326;33;20194;-74
2021/03/29 22:01:43;;;;;;;9.25;5.70;;;;;;;14.12;33.93;101772.72;8533271;33;20180;-75
2021/03/29 22:06:45;;;;;;;8.65;5.65;;;;;;;14.08;34.04;101774.81;8534794;33;20640;-75
2021/03/29 22:11:48;;;;;;;9.20;5.65;;;;;;;13.97;33.97;101777.44;8535916;33;20151;-75
2021/03/29 22:16:51;;;;;;;10.05;5.85;;;;;;;13.98;33.96;101789.97;8577620;33;20412;-75
2021/03/29 22:21:53;;;;;;;9.10;5.28;;;;;;;14.01;33.76;101788.88;8593237;33;20488;-74
2021/03/29 22:26:55;;;;;;;8.73;5.57;;;;;;;13.84;34.27;101790.09;8593204;33;20179;-74
2021/03/29 22:32:02;;;;;;;7.55;6.00;;;;;;;13.74;34.15;101797.16;8592563;33;20535;-75
2021/03/29 22:37:14;;;;;;;9.13;5.63;;;;;;;13.69;34.51;101794.78;8590684;33;20163;-75
2021/03/29 22:42:34;;;;;;;9.73;5.80;;;;;;;13.63;34.44;101789.81;8579105;33;20430;-74
2021/03/29 22:47:37;;;;;;;9.63;5.85;;;;;;;13.66;34.52;101797.72;8593970;33;20220;-75
2021/03/29 22:52:40;;;;;;;10.00;5.97;;;;;;;13.64;34.39;101791.56;8595734;33;20429;-75
2021/03/29 22:57:43;;;;;;;9.63;5.68;;;;;;;13.53;34.74;101795.03;8596158;33;20698;-75
2021/03/29 23:02:47;;;;;;;10.20;5.78;;;;;;;13.40;35.02;101795.03;8600771;33;20476;-74
2021/03/29 23:07:49;;;;;;;9.55;5.90;;;;;;;13.33;34.72;101799.13;8600664;33;20409;-74
2021/03/29 23:12:51;;;;;;;13.80;5.90;;;;;;;13.26;35.28;101795.09;8598583;33;20179;-74
2021/03/29 23:17:54;;;;;;;17.63;6.63;;;;;;;13.12;35.59;101796.06;8599130;33;20147;-75
2021/03/29 23:22:56;;;;;;;8.55;6.13;;;;;;;12.97;35.94;101810.59;8604055;33;20240;-74
2021/03/29 23:27:59;;;;;;;8.25;6.38;;;;;;;12.83;36.14;101800.75;8660547;33;20182;-74
2021/03/29 23:33:02;;;;;;;10.77;6.18;;;;;;;12.84;35.78;101807.91;8657157;33;20483;-75
2021/03/29 23:38:04;;;;;;;11.20;6.57;;;;;;;12.89;35.83;101805.75;8656803;33;20936;-75